sensor_id;sensor_type;location;lat;lon;timestamp;P1;durP1;ratioP1;P2;durP2;ratioP2
4810;SDS011;2419;51.276;6.472;2023-05-27T00:02:02;19.00;;;3.60;;
4810;SDS011;2419;51.276;6.472;2023-05-27T00:04:30;9.97;;;4.27;;
4810;SDS011;2419;51.276;6.472;2023-05-27T00:06:59;13.47;;;3.70;;
4810;SDS011;2419;51.276;6.472;2023-05-27T00:09:27;10.80;;;3.70;;
4810;SDS011;2419;51.276;6.472;2023-05-27T00:11:56;8.13;;;3.40;;
4810;SDS011;2419;51.276;6.472;2023-05-27T00:14:25;13.67;;;4.50;;
4810;SDS011;2419;51.276;6.472;2023-05-27T00:16:53;18.77;;;4.93;;
4810;SDS011;2419;51.276;6.472;2023-05-27T00:19:21;17.67;;;5.07;;
4810;SDS011;2419;51.276;6.472;2023-05-27T00:21:50;17.33;;;6.03;;
4810;SDS011;2419;51.276;6.472;2023-05-27T00:24:19;22.37;;;5.97;;
4810;SDS011;2419;51.276;6.472;2023-05-27T00:26:47;25.60;;;7.27;;
4810;SDS011;2419;51.276;6.472;2023-05-27T00:29:17;30.77;;;8.30;;
4810;SDS011;2419;51.276;6.472;2023-05-27T00:31:46;24.00;;;7.10;;
4810;SDS011;2419;51.276;6.472;2023-05-27T00:34:14;21.50;;;7.50;;
4810;SDS011;2419;51.276;6.472;2023-05-27T00:36:42;24.97;;;6.50;;
4810;SDS011;2419;51.276;6.472;2023-05-27T00:39:10;15.20;;;6.57;;
4810;SDS011;2419;51.276;6.472;2023-05-27T00:41:38;20.87;;;5.30;;
4810;SDS011;2419;51.276;6.472;2023-05-27T00:44:13;18.77;;;5.57;;
4810;SDS011;2419;51.276;6.472;2023-05-27T00:46:43;8.27;;;3.77;;
4810;SDS011;2419;51.276;6.472;2023-05-27T00:49:12;11.27;;;4.70;;
4810;SDS011;2419;51.276;6.472;2023-05-27T00:51:40;21.07;;;4.60;;
4810;SDS011;2419;51.276;6.472;2023-05-27T00:54:08;14.30;;;3.90;;
4810;SDS011;2419;51.276;6.472;2023-05-27T00:56:37;11.63;;;4.47;;
4810;SDS011;2419;51.276;6.472;2023-05-27T00:59:06;11.93;;;4.10;;
4810;SDS011;2419;51.276;6.472;2023-05-27T01:01:34;10.43;;;3.23;;
4810;SDS011;2419;51.276;6.472;2023-05-27T01:04:06;9.07;;;4.33;;
4810;SDS011;2419;51.276;6.472;2023-05-27T01:06:41;10.73;;;3.80;;
4810;SDS011;2419;51.276;6.472;2023-05-27T01:09:17;8.93;;;3.73;;
4810;SDS011;2419;51.276;6.472;2023-05-27T01:11:51;13.83;;;3.70;;
4810;SDS011;2419;51.276;6.472;2023-05-27T01:14:25;11.13;;;3.67;;
4810;SDS011;2419;51.276;6.472;2023-05-27T01:16:54;15.47;;;3.50;;
4810;SDS011;2419;51.276;6.472;2023-05-27T01:19:27;9.60;;;3.03;;
4810;SDS011;2419;51.276;6.472;2023-05-27T01:21:59;9.80;;;3.53;;
4810;SDS011;2419;51.276;6.472;2023-05-27T01:24:30;12.10;;;4.23;;
4810;SDS011;2419;51.276;6.472;2023-05-27T01:26:59;10.30;;;3.90;;
4810;SDS011;2419;51.276;6.472;2023-05-27T01:29:29;9.83;;;3.27;;
4810;SDS011;2419;51.276;6.472;2023-05-27T01:32:00;12.33;;;4.50;;
4810;SDS011;2419;51.276;6.472;2023-05-27T01:34:34;18.80;;;4.30;;
4810;SDS011;2419;51.276;6.472;2023-05-27T01:37:06;14.63;;;3.47;;
4810;SDS011;2419;51.276;6.472;2023-05-27T01:39:40;12.90;;;4.30;;
4810;SDS011;2419;51.276;6.472;2023-05-27T01:42:09;8.83;;;2.93;;
4810;SDS011;2419;51.276;6.472;2023-05-27T01:44:38;10.80;;;3.93;;
4810;SDS011;2419;51.276;6.472;2023-05-27T01:47:06;13.70;;;4.00;;
4810;SDS011;2419;51.276;6.472;2023-05-27T01:49:35;10.97;;;3.77;;
4810;SDS011;2419;51.276;6.472;2023-05-27T01:52:03;10.10;;;3.43;;
4810;SDS011;2419;51.276;6.472;2023-05-27T01:54:32;10.50;;;4.20;;
4810;SDS011;2419;51.276;6.472;2023-05-27T01:57:01;7.47;;;3.33;;
4810;SDS011;2419;51.276;6.472;2023-05-27T01:59:30;11.20;;;3.87;;
4810;SDS011;2419;51.276;6.472;2023-05-27T02:01:58;17.63;;;5.13;;
4810;SDS011;2419;51.276;6.472;2023-05-27T02:04:26;16.53;;;4.17;;
4810;SDS011;2419;51.276;6.472;2023-05-27T02:06:54;14.17;;;3.40;;
4810;SDS011;2419;51.276;6.472;2023-05-27T02:09:24;7.17;;;3.97;;
4810;SDS011;2419;51.276;6.472;2023-05-27T02:11:53;11.73;;;3.60;;
4810;SDS011;2419;51.276;6.472;2023-05-27T02:14:22;9.90;;;4.07;;
4810;SDS011;2419;51.276;6.472;2023-05-27T02:16:50;17.33;;;3.80;;
4810;SDS011;2419;51.276;6.472;2023-05-27T02:19:18;11.10;;;3.90;;
4810;SDS011;2419;51.276;6.472;2023-05-27T02:21:49;9.07;;;4.23;;
4810;SDS011;2419;51.276;6.472;2023-05-27T02:24:17;6.93;;;3.03;;
4810;SDS011;2419;51.276;6.472;2023-05-27T02:26:47;8.23;;;3.07;;
4810;SDS011;2419;51.276;6.472;2023-05-27T02:29:16;15.00;;;4.50;;
4810;SDS011;2419;51.276;6.472;2023-05-27T02:31:46;12.33;;;3.37;;
4810;SDS011;2419;51.276;6.472;2023-05-27T02:34:14;11.60;;;3.27;;
4810;SDS011;2419;51.276;6.472;2023-05-27T02:36:42;24.60;;;3.60;;
4810;SDS011;2419;51.276;6.472;2023-05-27T02:39:10;15.80;;;4.00;;
4810;SDS011;2419;51.276;6.472;2023-05-27T02:41:38;11.40;;;4.00;;
4810;SDS011;2419;51.276;6.472;2023-05-27T02:44:06;16.17;;;3.83;;
4810;SDS011;2419;51.276;6.472;2023-05-27T02:46:34;9.30;;;4.23;;
4810;SDS011;2419;51.276;6.472;2023-05-27T02:49:04;8.20;;;3.47;;
4810;SDS011;2419;51.276;6.472;2023-05-27T02:51:32;12.83;;;3.60;;
4810;SDS011;2419;51.276;6.472;2023-05-27T02:54:01;10.83;;;3.40;;
4810;SDS011;2419;51.276;6.472;2023-05-27T02:56:29;9.90;;;3.77;;
4810;SDS011;2419;51.276;6.472;2023-05-27T02:58:57;7.30;;;3.60;;
4810;SDS011;2419;51.276;6.472;2023-05-27T03:01:25;16.00;;;4.67;;
4810;SDS011;2419;51.276;6.472;2023-05-27T03:03:53;8.50;;;3.73;;
4810;SDS011;2419;51.276;6.472;2023-05-27T03:06:23;10.80;;;3.50;;
4810;SDS011;2419;51.276;6.472;2023-05-27T03:08:51;14.53;;;4.90;;
4810;SDS011;2419;51.276;6.472;2023-05-27T03:11:19;8.90;;;3.60;;
4810;SDS011;2419;51.276;6.472;2023-05-27T03:13:47;10.40;;;3.30;;
4810;SDS011;2419;51.276;6.472;2023-05-27T03:16:15;11.53;;;4.20;;
4810;SDS011;2419;51.276;6.472;2023-05-27T03:18:46;16.27;;;4.50;;
4810;SDS011;2419;51.276;6.472;2023-05-27T03:21:14;11.50;;;3.73;;
4810;SDS011;2419;51.276;6.472;2023-05-27T03:23:45;12.90;;;3.83;;
4810;SDS011;2419;51.276;6.472;2023-05-27T03:26:13;6.50;;;3.13;;
4810;SDS011;2419;51.276;6.472;2023-05-27T03:28:41;10.80;;;3.90;;
4810;SDS011;2419;51.276;6.472;2023-05-27T03:31:10;20.70;;;4.47;;
4810;SDS011;2419;51.276;6.472;2023-05-27T03:33:49;14.60;;;3.93;;
4810;SDS011;2419;51.276;6.472;2023-05-27T03:36:17;9.47;;;3.47;;
4810;SDS011;2419;51.276;6.472;2023-05-27T03:38:48;7.93;;;3.57;;
4810;SDS011;2419;51.276;6.472;2023-05-27T03:41:17;15.10;;;4.70;;
4810;SDS011;2419;51.276;6.472;2023-05-27T03:43:45;11.10;;;4.00;;
4810;SDS011;2419;51.276;6.472;2023-05-27T03:46:15;7.50;;;3.80;;
4810;SDS011;2419;51.276;6.472;2023-05-27T03:48:44;9.57;;;3.97;;
4810;SDS011;2419;51.276;6.472;2023-05-27T03:51:12;22.90;;;6.30;;
4810;SDS011;2419;51.276;6.472;2023-05-27T03:53:40;15.23;;;4.87;;
4810;SDS011;2419;51.276;6.472;2023-05-27T03:56:10;14.43;;;5.30;;
4810;SDS011;2419;51.276;6.472;2023-05-27T03:58:38;15.33;;;4.50;;
4810;SDS011;2419;51.276;6.472;2023-05-27T04:01:06;16.00;;;4.60;;
4810;SDS011;2419;51.276;6.472;2023-05-27T04:03:35;17.07;;;4.00;;
4810;SDS011;2419;51.276;6.472;2023-05-27T04:06:04;13.20;;;3.90;;
4810;SDS011;2419;51.276;6.472;2023-05-27T04:08:32;15.30;;;5.30;;
4810;SDS011;2419;51.276;6.472;2023-05-27T04:11:02;16.60;;;4.30;;
4810;SDS011;2419;51.276;6.472;2023-05-27T04:13:31;11.27;;;4.10;;
4810;SDS011;2419;51.276;6.472;2023-05-27T04:15:59;17.83;;;4.27;;
4810;SDS011;2419;51.276;6.472;2023-05-27T04:18:27;11.77;;;3.80;;
4810;SDS011;2419;51.276;6.472;2023-05-27T04:20:55;12.93;;;3.57;;
4810;SDS011;2419;51.276;6.472;2023-05-27T04:23:26;8.47;;;4.60;;
4810;SDS011;2419;51.276;6.472;2023-05-27T04:25:54;10.53;;;4.33;;
4810;SDS011;2419;51.276;6.472;2023-05-27T04:28:27;11.50;;;4.37;;
4810;SDS011;2419;51.276;6.472;2023-05-27T04:30:57;12.47;;;3.87;;
4810;SDS011;2419;51.276;6.472;2023-05-27T04:33:41;10.77;;;3.70;;
4810;SDS011;2419;51.276;6.472;2023-05-27T04:36:11;11.43;;;4.57;;
4810;SDS011;2419;51.276;6.472;2023-05-27T04:39:03;11.20;;;4.20;;
4810;SDS011;2419;51.276;6.472;2023-05-27T04:41:33;13.13;;;5.03;;
4810;SDS011;2419;51.276;6.472;2023-05-27T04:44:10;14.37;;;4.30;;
4810;SDS011;2419;51.276;6.472;2023-05-27T04:46:44;12.13;;;4.60;;
4810;SDS011;2419;51.276;6.472;2023-05-27T04:49:13;13.33;;;3.80;;
4810;SDS011;2419;51.276;6.472;2023-05-27T04:51:41;14.47;;;3.93;;
4810;SDS011;2419;51.276;6.472;2023-05-27T04:54:12;16.03;;;4.30;;
4810;SDS011;2419;51.276;6.472;2023-05-27T04:56:40;13.90;;;4.17;;
4810;SDS011;2419;51.276;6.472;2023-05-27T04:59:15;16.97;;;5.17;;
4810;SDS011;2419;51.276;6.472;2023-05-27T05:01:46;18.27;;;4.63;;
4810;SDS011;2419;51.276;6.472;2023-05-27T05:04:41;8.70;;;4.20;;
4810;SDS011;2419;51.276;6.472;2023-05-27T05:07:09;12.40;;;4.43;;
4810;SDS011;2419;51.276;6.472;2023-05-27T05:09:39;9.00;;;3.50;;
4810;SDS011;2419;51.276;6.472;2023-05-27T05:12:13;7.43;;;4.20;;
4810;SDS011;2419;51.276;6.472;2023-05-27T05:14:45;15.43;;;4.30;;
4810;SDS011;2419;51.276;6.472;2023-05-27T05:17:15;9.40;;;4.27;;
4810;SDS011;2419;51.276;6.472;2023-05-27T05:19:43;15.50;;;5.57;;
4810;SDS011;2419;51.276;6.472;2023-05-27T05:22:12;7.17;;;3.60;;
4810;SDS011;2419;51.276;6.472;2023-05-27T05:24:43;8.53;;;3.60;;
4810;SDS011;2419;51.276;6.472;2023-05-27T05:27:12;16.90;;;4.57;;
4810;SDS011;2419;51.276;6.472;2023-05-27T05:29:40;8.83;;;3.57;;
4810;SDS011;2419;51.276;6.472;2023-05-27T05:32:09;8.67;;;3.03;;
4810;SDS011;2419;51.276;6.472;2023-05-27T05:34:41;12.60;;;4.60;;
4810;SDS011;2419;51.276;6.472;2023-05-27T05:37:10;11.50;;;3.80;;
4810;SDS011;2419;51.276;6.472;2023-05-27T05:39:40;11.40;;;4.60;;
4810;SDS011;2419;51.276;6.472;2023-05-27T05:42:09;8.77;;;4.13;;
4810;SDS011;2419;51.276;6.472;2023-05-27T05:44:37;17.30;;;5.00;;
4810;SDS011;2419;51.276;6.472;2023-05-27T05:47:06;6.20;;;3.60;;
4810;SDS011;2419;51.276;6.472;2023-05-27T05:49:34;15.40;;;4.37;;
4810;SDS011;2419;51.276;6.472;2023-05-27T05:52:05;6.03;;;3.70;;
4810;SDS011;2419;51.276;6.472;2023-05-27T05:54:33;12.13;;;4.63;;
4810;SDS011;2419;51.276;6.472;2023-05-27T05:57:02;18.30;;;4.00;;
4810;SDS011;2419;51.276;6.472;2023-05-27T05:59:31;11.03;;;4.50;;
4810;SDS011;2419;51.276;6.472;2023-05-27T06:02:00;11.10;;;4.00;;
4810;SDS011;2419;51.276;6.472;2023-05-27T06:04:28;10.73;;;3.67;;
4810;SDS011;2419;51.276;6.472;2023-05-27T06:06:59;10.20;;;4.10;;
4810;SDS011;2419;51.276;6.472;2023-05-27T06:09:34;16.13;;;4.43;;
4810;SDS011;2419;51.276;6.472;2023-05-27T06:12:07;18.33;;;5.07;;
4810;SDS011;2419;51.276;6.472;2023-05-27T06:14:42;15.43;;;4.43;;
4810;SDS011;2419;51.276;6.472;2023-05-27T06:17:17;13.67;;;4.47;;
4810;SDS011;2419;51.276;6.472;2023-05-27T06:19:45;10.30;;;3.67;;
4810;SDS011;2419;51.276;6.472;2023-05-27T06:22:13;16.37;;;4.50;;
4810;SDS011;2419;51.276;6.472;2023-05-27T06:25:00;13.77;;;4.30;;
4810;SDS011;2419;51.276;6.472;2023-05-27T06:27:40;10.27;;;4.00;;
4810;SDS011;2419;51.276;6.472;2023-05-27T06:30:09;12.27;;;4.50;;
4810;SDS011;2419;51.276;6.472;2023-05-27T06:32:41;9.57;;;3.90;;
4810;SDS011;2419;51.276;6.472;2023-05-27T06:35:09;11.90;;;3.93;;
4810;SDS011;2419;51.276;6.472;2023-05-27T06:37:38;21.57;;;4.40;;
4810;SDS011;2419;51.276;6.472;2023-05-27T06:40:08;10.80;;;4.30;;
4810;SDS011;2419;51.276;6.472;2023-05-27T06:42:38;11.73;;;3.90;;
4810;SDS011;2419;51.276;6.472;2023-05-27T06:45:17;11.07;;;3.93;;
4810;SDS011;2419;51.276;6.472;2023-05-27T06:47:50;11.20;;;4.37;;
4810;SDS011;2419;51.276;6.472;2023-05-27T06:50:18;14.60;;;4.63;;
4810;SDS011;2419;51.276;6.472;2023-05-27T06:52:46;7.80;;;3.47;;
4810;SDS011;2419;51.276;6.472;2023-05-27T06:55:48;16.30;;;3.73;;
4810;SDS011;2419;51.276;6.472;2023-05-27T06:58:35;13.93;;;4.83;;
4810;SDS011;2419;51.276;6.472;2023-05-27T07:01:08;11.53;;;4.00;;
4810;SDS011;2419;51.276;6.472;2023-05-27T07:03:40;6.23;;;3.53;;
4810;SDS011;2419;51.276;6.472;2023-05-27T07:06:13;6.43;;;3.67;;
4810;SDS011;2419;51.276;6.472;2023-05-27T07:08:46;11.97;;;4.20;;
4810;SDS011;2419;51.276;6.472;2023-05-27T07:11:22;10.23;;;3.97;;
4810;SDS011;2419;51.276;6.472;2023-05-27T07:13:57;11.87;;;4.40;;
4810;SDS011;2419;51.276;6.472;2023-05-27T07:16:28;11.87;;;4.40;;
4810;SDS011;2419;51.276;6.472;2023-05-27T07:18:57;17.40;;;4.23;;
4810;SDS011;2419;51.276;6.472;2023-05-27T07:21:29;7.57;;;3.23;;
4810;SDS011;2419;51.276;6.472;2023-05-27T07:24:00;8.50;;;3.50;;
4810;SDS011;2419;51.276;6.472;2023-05-27T07:26:35;9.53;;;3.40;;
4810;SDS011;2419;51.276;6.472;2023-05-27T07:29:03;7.50;;;3.67;;
4810;SDS011;2419;51.276;6.472;2023-05-27T07:31:50;35.87;;;4.47;;
4810;SDS011;2419;51.276;6.472;2023-05-27T07:34:22;5.77;;;3.00;;
4810;SDS011;2419;51.276;6.472;2023-05-27T07:36:51;13.37;;;3.83;;
4810;SDS011;2419;51.276;6.472;2023-05-27T07:39:19;7.83;;;3.07;;
4810;SDS011;2419;51.276;6.472;2023-05-27T07:41:49;7.13;;;3.23;;
4810;SDS011;2419;51.276;6.472;2023-05-27T07:44:17;15.10;;;4.37;;
4810;SDS011;2419;51.276;6.472;2023-05-27T07:46:45;10.27;;;3.70;;
4810;SDS011;2419;51.276;6.472;2023-05-27T07:49:13;12.97;;;3.63;;
4810;SDS011;2419;51.276;6.472;2023-05-27T07:52:00;10.90;;;3.30;;
4810;SDS011;2419;51.276;6.472;2023-05-27T07:54:28;8.33;;;3.30;;
4810;SDS011;2419;51.276;6.472;2023-05-27T07:57:00;8.97;;;3.83;;
4810;SDS011;2419;51.276;6.472;2023-05-27T07:59:30;8.30;;;3.83;;
4810;SDS011;2419;51.276;6.472;2023-05-27T08:01:58;11.20;;;4.00;;
4810;SDS011;2419;51.276;6.472;2023-05-27T08:04:26;17.50;;;4.00;;
4810;SDS011;2419;51.276;6.472;2023-05-27T08:07:13;10.83;;;3.90;;
4810;SDS011;2419;51.276;6.472;2023-05-27T08:09:49;7.83;;;3.10;;
4810;SDS011;2419;51.276;6.472;2023-05-27T08:12:44;11.60;;;3.30;;
4810;SDS011;2419;51.276;6.472;2023-05-27T08:15:18;13.43;;;3.30;;
4810;SDS011;2419;51.276;6.472;2023-05-27T08:18:17;8.27;;;3.67;;
4810;SDS011;2419;51.276;6.472;2023-05-27T08:20:59;7.47;;;3.20;;
4810;SDS011;2419;51.276;6.472;2023-05-27T08:23:43;11.07;;;3.30;;
4810;SDS011;2419;51.276;6.472;2023-05-27T08:26:19;9.90;;;3.90;;
4810;SDS011;2419;51.276;6.472;2023-05-27T08:29:13;9.40;;;3.70;;
4810;SDS011;2419;51.276;6.472;2023-05-27T08:32:04;10.40;;;3.27;;
4810;SDS011;2419;51.276;6.472;2023-05-27T08:34:33;16.03;;;4.93;;
4810;SDS011;2419;51.276;6.472;2023-05-27T08:37:02;7.70;;;3.50;;
4810;SDS011;2419;51.276;6.472;2023-05-27T08:39:37;18.10;;;3.70;;
4810;SDS011;2419;51.276;6.472;2023-05-27T08:42:19;11.03;;;3.50;;
4810;SDS011;2419;51.276;6.472;2023-05-27T08:44:49;8.40;;;4.33;;
4810;SDS011;2419;51.276;6.472;2023-05-27T08:47:18;10.43;;;4.23;;
4810;SDS011;2419;51.276;6.472;2023-05-27T08:49:46;12.10;;;3.53;;
4810;SDS011;2419;51.276;6.472;2023-05-27T08:52:16;10.27;;;3.80;;
4810;SDS011;2419;51.276;6.472;2023-05-27T08:54:46;11.60;;;3.30;;
4810;SDS011;2419;51.276;6.472;2023-05-27T08:57:16;10.70;;;3.83;;
4810;SDS011;2419;51.276;6.472;2023-05-27T08:59:48;9.63;;;3.83;;
4810;SDS011;2419;51.276;6.472;2023-05-27T09:02:17;8.40;;;2.97;;
4810;SDS011;2419;51.276;6.472;2023-05-27T09:04:49;12.13;;;3.90;;
4810;SDS011;2419;51.276;6.472;2023-05-27T09:07:17;13.97;;;4.10;;
4810;SDS011;2419;51.276;6.472;2023-05-27T09:09:54;15.47;;;3.70;;
4810;SDS011;2419;51.276;6.472;2023-05-27T09:12:23;21.90;;;4.10;;
4810;SDS011;2419;51.276;6.472;2023-05-27T09:14:53;8.60;;;4.40;;
4810;SDS011;2419;51.276;6.472;2023-05-27T09:17:22;13.50;;;4.60;;
4810;SDS011;2419;51.276;6.472;2023-05-27T09:19:51;14.67;;;4.70;;
4810;SDS011;2419;51.276;6.472;2023-05-27T09:22:21;11.40;;;4.27;;
4810;SDS011;2419;51.276;6.472;2023-05-27T09:24:52;13.77;;;4.70;;
4810;SDS011;2419;51.276;6.472;2023-05-27T09:27:24;9.33;;;3.70;;
4810;SDS011;2419;51.276;6.472;2023-05-27T09:29:54;10.50;;;4.20;;
4810;SDS011;2419;51.276;6.472;2023-05-27T09:32:24;9.83;;;4.17;;
4810;SDS011;2419;51.276;6.472;2023-05-27T09:34:53;10.77;;;4.20;;
4810;SDS011;2419;51.276;6.472;2023-05-27T09:37:24;14.73;;;4.47;;
4810;SDS011;2419;51.276;6.472;2023-05-27T09:39:52;15.70;;;4.80;;
4810;SDS011;2419;51.276;6.472;2023-05-27T09:42:20;13.37;;;4.50;;
4810;SDS011;2419;51.276;6.472;2023-05-27T09:44:48;15.67;;;4.60;;
4810;SDS011;2419;51.276;6.472;2023-05-27T09:47:18;11.90;;;4.30;;
4810;SDS011;2419;51.276;6.472;2023-05-27T09:49:50;12.93;;;3.93;;
4810;SDS011;2419;51.276;6.472;2023-05-27T09:52:20;15.00;;;4.63;;
4810;SDS011;2419;51.276;6.472;2023-05-27T09:54:51;14.07;;;4.70;;
4810;SDS011;2419;51.276;6.472;2023-05-27T09:57:20;11.70;;;3.70;;
4810;SDS011;2419;51.276;6.472;2023-05-27T09:59:49;8.67;;;3.90;;
4810;SDS011;2419;51.276;6.472;2023-05-27T10:02:20;13.17;;;4.90;;
4810;SDS011;2419;51.276;6.472;2023-05-27T10:04:53;7.80;;;4.00;;
4810;SDS011;2419;51.276;6.472;2023-05-27T10:07:30;13.83;;;4.50;;
4810;SDS011;2419;51.276;6.472;2023-05-27T10:10:19;11.07;;;4.13;;
4810;SDS011;2419;51.276;6.472;2023-05-27T10:12:49;20.27;;;5.00;;
4810;SDS011;2419;51.276;6.472;2023-05-27T10:15:20;10.57;;;3.80;;
4810;SDS011;2419;51.276;6.472;2023-05-27T10:17:52;9.47;;;3.40;;
4810;SDS011;2419;51.276;6.472;2023-05-27T10:20:28;11.23;;;3.20;;
4810;SDS011;2419;51.276;6.472;2023-05-27T10:23:08;26.80;;;4.00;;
4810;SDS011;2419;51.276;6.472;2023-05-27T10:25:38;9.70;;;3.53;;
4810;SDS011;2419;51.276;6.472;2023-05-27T10:31:11;10.17;;;4.13;;
4810;SDS011;2419;51.276;6.472;2023-05-27T10:33:43;10.90;;;3.70;;
4810;SDS011;2419;51.276;6.472;2023-05-27T10:36:14;9.00;;;3.20;;
4810;SDS011;2419;51.276;6.472;2023-05-27T10:38:54;11.03;;;4.00;;
4810;SDS011;2419;51.276;6.472;2023-05-27T10:41:23;6.07;;;3.17;;
4810;SDS011;2419;51.276;6.472;2023-05-27T10:43:54;24.93;;;3.57;;
4810;SDS011;2419;51.276;6.472;2023-05-27T10:46:23;12.67;;;3.87;;
4810;SDS011;2419;51.276;6.472;2023-05-27T10:48:53;13.23;;;3.73;;
4810;SDS011;2419;51.276;6.472;2023-05-27T10:51:30;11.30;;;4.07;;
4810;SDS011;2419;51.276;6.472;2023-05-27T10:54:02;13.00;;;4.17;;
4810;SDS011;2419;51.276;6.472;2023-05-27T10:56:51;12.50;;;3.80;;
4810;SDS011;2419;51.276;6.472;2023-05-27T10:59:20;8.50;;;3.63;;
4810;SDS011;2419;51.276;6.472;2023-05-27T11:01:50;12.43;;;3.90;;
4810;SDS011;2419;51.276;6.472;2023-05-27T11:04:21;11.40;;;3.37;;
4810;SDS011;2419;51.276;6.472;2023-05-27T11:06:56;9.13;;;3.57;;
4810;SDS011;2419;51.276;6.472;2023-05-27T11:09:29;15.67;;;4.40;;
4810;SDS011;2419;51.276;6.472;2023-05-27T11:12:01;5.57;;;2.83;;
4810;SDS011;2419;51.276;6.472;2023-05-27T11:14:31;8.37;;;3.97;;
4810;SDS011;2419;51.276;6.472;2023-05-27T11:16:59;8.73;;;3.10;;
4810;SDS011;2419;51.276;6.472;2023-05-27T11:19:29;13.33;;;3.57;;
4810;SDS011;2419;51.276;6.472;2023-05-27T11:21:57;12.80;;;3.40;;
4810;SDS011;2419;51.276;6.472;2023-05-27T11:24:25;7.73;;;3.00;;
4810;SDS011;2419;51.276;6.472;2023-05-27T11:26:53;10.40;;;3.47;;
4810;SDS011;2419;51.276;6.472;2023-05-27T11:29:27;6.87;;;3.03;;
4810;SDS011;2419;51.276;6.472;2023-05-27T11:32:20;6.17;;;2.80;;
4810;SDS011;2419;51.276;6.472;2023-05-27T11:34:49;8.93;;;2.93;;
4810;SDS011;2419;51.276;6.472;2023-05-27T11:37:18;6.70;;;2.60;;
4810;SDS011;2419;51.276;6.472;2023-05-27T11:39:49;8.40;;;3.40;;
4810;SDS011;2419;51.276;6.472;2023-05-27T11:42:21;11.53;;;2.93;;
4810;SDS011;2419;51.276;6.472;2023-05-27T11:44:51;6.27;;;3.10;;
4810;SDS011;2419;51.276;6.472;2023-05-27T11:47:20;9.20;;;3.30;;
4810;SDS011;2419;51.276;6.472;2023-05-27T11:49:50;7.40;;;2.90;;
4810;SDS011;2419;51.276;6.472;2023-05-27T11:52:18;5.27;;;2.90;;
4810;SDS011;2419;51.276;6.472;2023-05-27T11:54:48;7.63;;;3.13;;
4810;SDS011;2419;51.276;6.472;2023-05-27T11:57:24;8.27;;;3.30;;
4810;SDS011;2419;51.276;6.472;2023-05-27T11:59:52;6.60;;;2.80;;
4810;SDS011;2419;51.276;6.472;2023-05-27T12:02:20;7.67;;;3.20;;
4810;SDS011;2419;51.276;6.472;2023-05-27T12:04:49;7.70;;;3.17;;
4810;SDS011;2419;51.276;6.472;2023-05-27T12:07:17;8.10;;;2.80;;
4810;SDS011;2419;51.276;6.472;2023-05-27T12:09:47;7.63;;;3.50;;
4810;SDS011;2419;51.276;6.472;2023-05-27T12:12:16;15.00;;;4.53;;
4810;SDS011;2419;51.276;6.472;2023-05-27T12:14:46;13.80;;;3.90;;
4810;SDS011;2419;51.276;6.472;2023-05-27T12:17:14;6.00;;;3.00;;
4810;SDS011;2419;51.276;6.472;2023-05-27T12:19:42;7.17;;;3.10;;
4810;SDS011;2419;51.276;6.472;2023-05-27T12:22:11;6.90;;;3.10;;
4810;SDS011;2419;51.276;6.472;2023-05-27T12:24:39;7.90;;;2.90;;
4810;SDS011;2419;51.276;6.472;2023-05-27T12:27:07;10.50;;;3.00;;
4810;SDS011;2419;51.276;6.472;2023-05-27T12:29:35;7.90;;;3.40;;
4810;SDS011;2419;51.276;6.472;2023-05-27T12:32:04;9.93;;;3.23;;
4810;SDS011;2419;51.276;6.472;2023-05-27T12:34:32;9.00;;;3.27;;
4810;SDS011;2419;51.276;6.472;2023-05-27T12:37:00;9.23;;;3.10;;
4810;SDS011;2419;51.276;6.472;2023-05-27T12:39:29;5.73;;;3.30;;
4810;SDS011;2419;51.276;6.472;2023-05-27T12:41:57;12.00;;;2.50;;
4810;SDS011;2419;51.276;6.472;2023-05-27T12:44:25;7.97;;;2.70;;
4810;SDS011;2419;51.276;6.472;2023-05-27T12:46:53;9.80;;;3.50;;
4810;SDS011;2419;51.276;6.472;2023-05-27T12:49:21;7.93;;;2.80;;
4810;SDS011;2419;51.276;6.472;2023-05-27T12:51:49;19.07;;;3.77;;
4810;SDS011;2419;51.276;6.472;2023-05-27T12:54:17;8.70;;;3.47;;
4810;SDS011;2419;51.276;6.472;2023-05-27T12:56:47;13.53;;;3.60;;
4810;SDS011;2419;51.276;6.472;2023-05-27T12:59:15;6.50;;;2.90;;
4810;SDS011;2419;51.276;6.472;2023-05-27T13:01:43;8.33;;;3.57;;
4810;SDS011;2419;51.276;6.472;2023-05-27T13:04:11;5.77;;;3.30;;
4810;SDS011;2419;51.276;6.472;2023-05-27T13:06:39;7.87;;;3.40;;
4810;SDS011;2419;51.276;6.472;2023-05-27T13:09:07;5.50;;;2.93;;
4810;SDS011;2419;51.276;6.472;2023-05-27T13:11:35;6.27;;;2.73;;
4810;SDS011;2419;51.276;6.472;2023-05-27T13:14:05;10.23;;;3.20;;
4810;SDS011;2419;51.276;6.472;2023-05-27T13:16:33;7.37;;;3.20;;
4810;SDS011;2419;51.276;6.472;2023-05-27T13:19:02;6.53;;;3.07;;
4810;SDS011;2419;51.276;6.472;2023-05-27T13:21:30;11.73;;;3.30;;
4810;SDS011;2419;51.276;6.472;2023-05-27T13:23:59;11.43;;;3.27;;
4810;SDS011;2419;51.276;6.472;2023-05-27T13:26:27;8.23;;;3.00;;
4810;SDS011;2419;51.276;6.472;2023-05-27T13:28:56;9.10;;;3.30;;
4810;SDS011;2419;51.276;6.472;2023-05-27T13:31:26;4.97;;;2.70;;
4810;SDS011;2419;51.276;6.472;2023-05-27T13:33:54;18.00;;;2.90;;
4810;SDS011;2419;51.276;6.472;2023-05-27T13:36:22;6.07;;;2.90;;
4810;SDS011;2419;51.276;6.472;2023-05-27T13:38:50;15.13;;;3.93;;
4810;SDS011;2419;51.276;6.472;2023-05-27T13:41:18;8.13;;;2.47;;
4810;SDS011;2419;51.276;6.472;2023-05-27T13:43:47;5.83;;;3.13;;
4810;SDS011;2419;51.276;6.472;2023-05-27T13:46:15;13.23;;;3.37;;
4810;SDS011;2419;51.276;6.472;2023-05-27T13:48:44;8.33;;;3.27;;
4810;SDS011;2419;51.276;6.472;2023-05-27T13:51:12;6.60;;;2.80;;
4810;SDS011;2419;51.276;6.472;2023-05-27T13:53:40;10.10;;;2.80;;
4810;SDS011;2419;51.276;6.472;2023-05-27T13:56:08;5.10;;;2.17;;
4810;SDS011;2419;51.276;6.472;2023-05-27T13:58:36;3.90;;;2.30;;
4810;SDS011;2419;51.276;6.472;2023-05-27T14:01:04;5.50;;;3.17;;
4810;SDS011;2419;51.276;6.472;2023-05-27T14:03:33;8.50;;;3.23;;
4810;SDS011;2419;51.276;6.472;2023-05-27T14:06:03;8.73;;;2.30;;
4810;SDS011;2419;51.276;6.472;2023-05-27T14:08:31;7.50;;;3.33;;
4810;SDS011;2419;51.276;6.472;2023-05-27T14:10:59;8.90;;;3.43;;
4810;SDS011;2419;51.276;6.472;2023-05-27T14:13:28;11.63;;;2.60;;
4810;SDS011;2419;51.276;6.472;2023-05-27T14:15:56;10.17;;;2.63;;
4810;SDS011;2419;51.276;6.472;2023-05-27T14:18:24;5.60;;;2.23;;
4810;SDS011;2419;51.276;6.472;2023-05-27T14:20:52;5.60;;;3.30;;
4810;SDS011;2419;51.276;6.472;2023-05-27T14:23:22;5.63;;;2.67;;
4810;SDS011;2419;51.276;6.472;2023-05-27T14:25:50;4.90;;;2.50;;
4810;SDS011;2419;51.276;6.472;2023-05-27T14:28:18;11.27;;;4.13;;
4810;SDS011;2419;51.276;6.472;2023-05-27T14:30:46;5.90;;;3.13;;
4810;SDS011;2419;51.276;6.472;2023-05-27T14:33:14;8.80;;;3.00;;
4810;SDS011;2419;51.276;6.472;2023-05-27T14:35:42;6.00;;;2.70;;
4810;SDS011;2419;51.276;6.472;2023-05-27T14:38:12;10.97;;;3.33;;
4810;SDS011;2419;51.276;6.472;2023-05-27T14:40:44;11.00;;;3.17;;
4810;SDS011;2419;51.276;6.472;2023-05-27T14:43:13;7.30;;;2.90;;
4810;SDS011;2419;51.276;6.472;2023-05-27T14:45:41;6.47;;;2.83;;
4810;SDS011;2419;51.276;6.472;2023-05-27T14:48:09;3.37;;;2.70;;
4810;SDS011;2419;51.276;6.472;2023-05-27T14:50:37;7.23;;;3.07;;
4810;SDS011;2419;51.276;6.472;2023-05-27T14:53:05;10.40;;;3.50;;
4810;SDS011;2419;51.276;6.472;2023-05-27T14:55:33;6.60;;;3.20;;
4810;SDS011;2419;51.276;6.472;2023-05-27T14:58:03;8.60;;;3.60;;
4810;SDS011;2419;51.276;6.472;2023-05-27T15:00:32;7.73;;;3.20;;
4810;SDS011;2419;51.276;6.472;2023-05-27T15:03:01;3.50;;;2.40;;
4810;SDS011;2419;51.276;6.472;2023-05-27T15:05:29;8.10;;;3.23;;
4810;SDS011;2419;51.276;6.472;2023-05-27T15:07:58;5.67;;;3.20;;
4810;SDS011;2419;51.276;6.472;2023-05-27T15:10:26;9.30;;;3.33;;
4810;SDS011;2419;51.276;6.472;2023-05-27T15:12:54;12.97;;;3.23;;
4810;SDS011;2419;51.276;6.472;2023-05-27T15:15:23;4.93;;;3.20;;
4810;SDS011;2419;51.276;6.472;2023-05-27T15:17:52;5.87;;;3.40;;
4810;SDS011;2419;51.276;6.472;2023-05-27T15:20:20;4.17;;;2.57;;
4810;SDS011;2419;51.276;6.472;2023-05-27T15:22:48;14.47;;;3.30;;
4810;SDS011;2419;51.276;6.472;2023-05-27T15:25:16;10.60;;;4.07;;
4810;SDS011;2419;51.276;6.472;2023-05-27T15:27:44;4.73;;;2.87;;
4810;SDS011;2419;51.276;6.472;2023-05-27T15:30:12;6.63;;;3.10;;
4810;SDS011;2419;51.276;6.472;2023-05-27T15:32:42;5.90;;;2.80;;